Race Result

Wicked Triple Fun 5K

200 Eglin Pkwy NE, Ft Walton Beach, FL 32547
3.1 miles
Place Name Age Sex Age Group Event Time Pace
1 Matt Blunden 37 M Overall Male R 00:16:23 05:17:00
2 Tim Kogge 34 M 1M30-34 R 00:17:38 05:41:00
3 Jonathan Campbell 40 M Male Masters R 00:17:43 05:42:00
4 David Shearon 47 M 1M45-49 R 00:17:52 05:45:00
5 Doug Hellinger 42 M 1M40-44 R 00:18:02 05:49:00
6 Katja Blunden 38 F Overall Female R 00:18:46 06:03:00
7 Fritz Stoppelbein 31 M 2M30-34 R 00:18:56 06:06:00
8 Steve Harris 37 M 1M35-39 R 00:19:28 06:16:00
9 Jason Logue 45 M 2M45-49 R 00:19:37 06:19:00
10 John Watts 47 M 3M45-49 R 00:20:19 06:33:00
11 Alicia Townsend 31 F 1F30-34 R 00:20:25 06:35:00
12 Nick Scott 40 M 2M40-44 R 00:20:39 06:39:00
13 Susan Frazier 23 F 1F20-24 R 00:20:53 06:44:00
14 Corey Beam 32 M 3M30-34 R 00:20:54 06:44:00
15 Jenna Desmet 31 F 2F30-34 R 00:21:12 06:50:00
16 Luke Dewees 11 M 1M11-14 R 00:21:28 06:55:00
17 Jason Grammo 31 M R 00:21:30 06:56:00
18 Kristin Santroch 29 F 1F25-29 R 00:21:35 06:57:00
19 Tim Boomer Sullivan 58 M Male G/M R 00:21:57 07:04:00
20 Rick Leonardi 55 M 1M55-59 R 00:22:03 07:06:00
21 Levi McNeely 27 M 1M25-29 R 00:22:00 00:07:00
22 Jenna Beaty 44 F Female Masters R 00:22:21 07:12:00
23 Phillip Broyles 39 M 2M35-39 R 00:22:28 07:14:00
24 Karl Denninger 54 M 1M50-54 R 00:22:29 07:15:00
25 Jerry Searcy 48 M R 00:22:32 07:16:00
26 Ashley Selvey 31 F 3F30-34 R 00:22:36 07:17:00
27 Paula Piazza 53 F Female G/M R 00:22:56 07:23:00
28 Fil Piazza 54 M 2M50-54 R 00:22:56 07:23:00
29 Alexander Campbell 23 M 1M20-24 R 00:23:10 07:28:00
30 Porter Harden 8 M 1M0-10 R 00:23:15 07:30:00
31 Mike Superman Million 62 M Male Sr G/M R 00:23:18 07:30:00
32 Sarah Grammo 31 F R 00:23:23 07:32:00
33 Samuel Garcia 36 M 3M35-39 R 00:23:32 07:35:00
34 Troy Dobson 49 M R 00:23:32 07:35:00
35 Aidan Beaty 12 M 2M11-14 R 00:23:37 07:37:00
36 Aaron Dewees 40 M 3M40-44 R 00:23:42 07:38:00
37 Shawn Matney 42 M R 00:23:46 07:40:00
38 Christine Kirila 48 F 1F45-49 R 00:23:47 07:40:00
39 Aaron Webber 43 M R 00:23:54 07:42:00
40 Scott Cole 45 M R 00:24:09 07:47:00
41 Dana Alexander 37 F 1F35-39 R 00:24:12 07:48:00
42 Lori Lynn Short 51 F 1F50-54 R 00:24:15 07:49:00
43 Suzette MacKenzie 49 F 2F45-49 R 00:24:26 07:52:00
44 Jay Flint 58 M 2M55-59 R 00:24:27 07:53:00
45 Dwight Richards 48 M R 00:24:40 07:57:00
46 Nick Kern 69 M 1M65-69 R 00:24:55 08:02:00
47 James Davis 33 M R 00:25:01 08:04:00
48 Joe Walker 72 M 1M70-74 R 00:25:04 08:05:00
49 Diana Cole 42 F 1F40-44 R 00:25:09 08:06:00
50 Kenneth Wolfie 39 M R 00:25:20 08:10:00
51 Dana Dalessandro 39 M R 00:25:32 08:14:00
52 Raul Meza 61 F 1F60-64 R 00:25:35 08:15:00
53 Denise Watts 47 F 3F45-49 R 00:25:37 08:15:00
54 Frank Fabozzi 55 M 3M55-59 R 00:25:45 08:18:00
55 Eric Hambright 39 M R 00:25:48 08:19:00
56 Sharon Wolfie 38 F 2F35-39 R 00:25:53 08:20:00
57 Carrie Juratich 37 F 3F35-39 R 00:26:06 08:25:00
58 Margherita Demoya 57 F 1F55-59 R 00:26:16 08:28:00
59 Elijah London 10 M 2M0-10 R 00:26:19 08:29:00
60 Valeri Hein 50 F 2F50-54 R 00:26:30 08:32:00
61 Rachel Kimbrell 36 F R 00:26:33 08:33:00
62 James Savage 46 M R 00:26:45 08:37:00
63 Tom West 43 M R 00:26:53 08:40:00
64 Catherine Fraser 19 F 1F15-19 R 00:27:03 08:43:00
65 T J Matheny 12 M 3M11-14 R 00:27:04 08:43:00
66 Carrie Blyth 42 F 2F40-44 R 00:27:05 08:44:00
67 David Poole 38 M R 00:27:20 08:49:00
68 Monica Peppler 55 F 2F55-59 R 00:27:25 08:50:00
69 Deborah Hurst 53 F 3F50-54 R 00:27:37 08:54:00
70 Todd Schroeder 46 M R 00:27:40 08:55:00
71 Joyce Luen 32 F R 00:27:43 08:56:00
72 Bill Christie 70 M 2M70-74 R 00:28:06 09:03:00
73 Belinda McLeod 44 F 3F40-44 R 00:28:27 09:10:00
74 Joe King 52 M 3M50-54 R 00:28:30 09:11:00
75 Paige Young 34 F R 00:28:35 09:13:00
76 Bradlee Bates 16 M 1M15-19 R 00:28:37 09:13:00
77 John Huhn 49 M R 00:28:42 09:15:00
78 Chris Morrelli 34 M R 00:28:43 09:15:00
79 Aubrey Summers 32 F R 00:28:45 09:16:00
80 Andrew Godwin 28 M 2M25-29 R 00:28:46 09:16:00
81 Jamie Gantert 25 F 2F25-29 R 00:28:47 09:17:00
82 Cheryl Hammer 60 F Female Sr G/M R 00:28:48 09:17:00
83 Elizabeth Figuerou 26 F 3F25-29 R 00:28:51 09:18:00
84 Ryan Lear 39 M R 00:28:52 09:18:00
85 Kris Yaple 26 M 3M20-24 R 00:28:57 09:20:00
86 Lance Jorgensen 71 M 3M70-74 R 00:28:59 09:20:00
87 Jocie Meza 60 F 1F60-64 R 00:29:03 09:22:00
88 Cliff Ennis 36 M R 00:29:05 09:22:00
89 Tara Harden 38 F R 00:29:12 09:25:00
90 Matt Perkins 33 M R 00:29:13 09:25:00
91 Adam Gancel 20 M 2M20-24 R 00:29:16 09:26:00
92 Melissa Yandel 53 F R 00:29:17 09:26:00
93 Regina Fleming 55 F 3F55-59 R 00:29:18 09:27:00
94 Ashley Frith 24 F 2F20-24 R 00:29:20 09:27:00
95 Michele Polek 36 F R 00:29:21 09:28:00
96 David Runels 38 M R 00:29:22 09:28:00
97 Kevin Limberg 39 M R 00:29:23 09:28:00
98 Kirsten Schmied 37 F R 00:29:24 09:29:00
99 William McArthur 57 M R 00:29:28 09:30:00
100 Jason Krumm 39 M R 00:29:32 09:31:00
101 Roberta Sykes 43 F R 00:29:36 09:32:00
102 Dave Miller 67 M 2M65-69 R 00:29:37 09:33:00
103 Stacia Milhous 34 F R 00:29:38 09:33:00
104 Haley Nicholson 26 F R 00:29:42 09:34:00
105 Lisa Nall 53 F R 00:29:45 09:35:00
106 Catherine Williams 33 F R 00:29:52 09:38:00
107 Dale Andrews 53 M R 00:29:52 09:38:00
108 Alexis Quick 31 F R 00:30:10 09:43:00
109 Donna King 50 F R 00:30:32 09:50:00
110 Michelle Nolting 39 F R 00:30:33 09:51:00
111 Vic Demoya 58 M R 00:30:34 09:51:00
112 Perscilla Ritenour 33 F R 00:30:37 09:52:00
113 Garrett Robison 10 M 3M0-10 R 00:30:38 09:52:00
114 Diana DeCotis Smith 36 F R 00:30:44 09:54:00
115 Tresha Robison 44 F R 00:30:51 09:57:00
116 Teresa Hess 36 F R 00:30:54 09:58:00
117 Patrick Willi 37 M R 00:30:55 09:58:00
118 Cary Jenkins 40 F R 00:31:05 10:01:00
119 Brian McMahon 59 M Overall Male W 00:31:15 10:04:00
120 Eunice Hemsley 64 F 2F60-64 R 00:31:22 10:07:00
121 Jennifer Pho 41 F R 00:31:59 10:19:00
122 Aaron Williams 33 M R 00:32:00 10:19:00
123 Angelica Johnson 51 F R 00:32:01 10:19:00
124 Alyssa Williams 26 F R 00:32:02 10:20:00
125 Barbara Schroeder 40 F R 00:32:03 10:20:00
126 Adam Selvey 38 M R 00:32:10 10:22:00
127 Charles Gantert 59 M R 00:32:16 10:24:00
128 Amy Breedlove 34 F R 00:32:17 10:24:00
129 Katie Whitaker 31 F R 00:32:19 10:25:00
130 Beau Monnot 35 M R 00:32:21 10:26:00
131 Hannah Root 30 F R 00:32:25 10:27:00
132 Jason Zegimann 42 M R 00:32:37 10:31:00
133 Anna Klepser 41 F R 00:32:42 10:32:00
134 Stuart Skrivanie 42 M R 00:32:51 10:35:00
135 Peggy Phillips 58 F R 00:32:55 10:37:00
136 Kristen Davis 30 F R 00:32:57 10:37:00
137 Brian Weightman 49 M R 00:32:58 10:38:00
138 Lisa Wildman 47 F R 00:33:02 10:39:00
139 Valeria Rehl 54 F R 00:33:03 10:39:00
140 BANDIT 0 R 00:33:06 10:40:00
141 Carla Dalton 47 F R 00:33:09 10:41:00
142 Doug Koethe 52 M R 00:33:24 10:46:00
143 Cadence Garza 6 F 1F0-10 R 00:33:25 10:46:00
144 Emilio Garza 46 M R 00:33:30 10:48:00
145 Danielle Toth 34 F R 00:33:37 10:50:00
146 John Sanderson 47 M R 00:33:38 10:50:00
147 Larry Perry 52 M 2 Male W 00:33:44 10:52:00
148 Greg Noble 53 M 3 Male W 00:33:46 10:53:00
149 Angela Amans 45 F R 00:33:47 10:53:00
150 Jeffrey Amans 49 M R 00:33:49 10:54:00
151 Dorothy Kramer 42 F R 00:33:59 10:57:00
152 Shannon Skrivanie 39 F R 00:34:00 10:58:00
153 William Johnson 50 M R 00:34:05 10:59:00
154 Tiffany Martell 39 F R 00:34:07 11:00:00
155 Stephanie Curtis 52 F R 00:34:20 11:04:00
156 Rhonda Breland 49 F R 00:34:28 11:07:00
157 Trey Horton 54 M R 00:34:40 11:10:00
158 Christopher Reiter 41 M R 00:34:46 11:12:00
159 Erica Wright 35 F R 00:34:58 11:16:00
160 Kim Poole 39 F R 00:34:59 11:17:00
161 Rayanne H 30 F R 00:35:02 11:18:00
162 Kaleb Cruise 31 M R 00:35:09 11:20:00
163 Brandi Waller 37 F R 00:35:10 11:20:00
164 Trisha Dall 41 F R 00:35:12 11:21:00
165 Amanda Colwell 40 F R 00:35:28 11:26:00
166 Megan Schwinghammer 24 F 3F20-24 R 00:35:31 11:27:00
167 Rusty Dunn 57 M R 00:35:32 11:27:00
168 Laurie Allen 47 F R 00:35:54 11:34:00
169 John Allen 48 M R 00:36:14 11:41:00
170 Gwendolyn Ingoglia 49 F R 00:36:26 11:45:00
171 Kimberlie Birr 30 F R 00:36:27 11:45:00
172 Gavin Robison 7 M R 00:36:44 11:50:00
173 Brett Robison 46 M R 00:37:01 11:56:00
174 Bob Matheson 68 M W 00:37:04 11:57:00
175 Jennifer Cabral 45 F R 00:37:14 12:00:00
176 Kathleen Mannion 23 F R 00:37:29 12:05:00
177 Tasha Bates 46 F R 00:37:32 12:06:00
178 Claudia Martin 43 F R 00:37:50 12:12:00
179 Stan Walker 47 M R 00:37:51 12:12:00
180 Nicole Correa 31 F R 00:37:52 12:12:00
181 Amanda Seldomridge 33 F R 00:37:53 12:13:00
182 Charlie Horton 27 M R 00:37:54 12:13:00
183 Ken Wright 77 M R 00:38:11 12:19:00
184 BANDIT 0 R 00:38:16 12:20:00
185 Tyla Lamb 42 F R 00:38:22 12:22:00
186 Heidi Wesenberg 42 F R 00:38:25 12:23:00
187 Carla Kirkland 46 F R 00:38:41 12:28:00
188 Alyson Garza 39 F R 00:38:43 12:29:00
189 Kevin F 56 M R 00:38:48 12:30:00
190 Jenny Morrelli 34 F R 00:39:24 12:42:00
191 Ken Wright 57 M R 00:39:44 12:49:00
192 Lynnmarie Dunn 50 F R 00:40:06 12:56:00
193 Mary Bess Broom 55 F R 00:40:20 13:00:00
194 Viviane Prybille 57 F R 00:40:33 13:04:00
195 Richard Prokesch 65 M R 00:40:41 13:07:00
196 Jenn Matney 43 F R 00:40:59 13:13:00
197 Ted Duzansky 57 M W 00:41:00 13:13:00
198 Ryan Gregg 4 M R 00:41:00 13:13:00
199 Steve Gregg 48 M R 00:41:31 13:23:00
200 Aimee Gregg 42 F R 00:41:38 13:25:00
201 Annette Beard 54 F R 00:41:59 13:32:00
202 Beverly Cyr 49 F R 00:42:01 13:33:00
203 Sarah Wofford 28 F R 00:42:19 13:39:00
204 Jesus Mares 28 M R 00:42:24 13:40:00
205 Madi Knapp 12 F 1F11-14 R 00:42:30 13:42:00
206 Bentlee Cook 12 F 2F11-14 R 00:42:42 13:46:00
207 Brandy Zmek 52 F R 00:42:44 13:47:00
208 Madison Davis 8 F 2F0-10 R 00:42:50 13:49:00
209 Elizabeth Davis 37 F R 00:43:37 14:04:00
210 Claudia McArthur 54 F R 00:43:48 14:07:00
211 Jarrod Canham 50 M W 00:43:55 14:10:00
212 Tammie Arcement 50 F R 00:44:04 14:12:00
213 Neva Larson 66 F Overall Female W 00:44:10 14:14:00
214 David Larson 65 M W 00:45:53 14:48:00
215 Gerald Walp 60 M W 00:45:54 14:48:00
216 Rosemary DeCotis 64 F R 00:46:16 14:55:00
217 Anthony Decotis 64 F 2F60-64 R 00:46:51 15:06:00
218 Kimberly Hathcock 46 F R 00:46:51 15:06:00
219 Samantha Armsheimer 21 F R 00:47:05 15:11:00
220 Denise Johnson 44 F R 00:47:11 15:13:00
221 Jo Lowery 67 F 1F65-69 R 00:47:26 15:18:00
222 Niki McMahon 60 F 2 Female W 00:47:27 15:18:00
223 Darrell Doswell 54 M R 00:47:31 15:19:00
224 Stephen Schrader 58 M W 00:47:32 15:20:00
225 Louise McAdoo 49 F 3 Female W 00:47:32 15:20:00
226 Susan Ray 66 F W 00:48:20 15:35:00
227 Bernadette Quinn 78 F 1F75-79 R 00:48:54 15:46:00
228 Monica Mitchell 37 F R 00:49:58 16:07:00
229 Robin Zietring 59 F R 00:50:00 16:07:00
230 Jodi Harris 49 F R 00:51:21 16:33:00
231 Mersaydee Harris 18 F 2F15-19 R 00:51:22 16:34:00
232 Ryan King 30 M R 00:51:23 16:34:00
233 Emily Ray 55 F R 00:52:04 16:47:00
234 Latreva Pounds 55 F R 00:52:05 16:48:00
235 Deborah B 0 F R 00:52:09 16:49:00
236 Laura Martin 69 F W 00:52:13 16:50:00
237 Rebecca Johansen 32 F R 00:52:19 16:52:00
238 Rebecca Halsema 28 F R 00:52:23 16:53:00
239 Rebekah Shea Olford 8 F W 00:53:50 17:21:00
240 Derek Oford 37 M W 00:55:09 17:47:00
241 VaTema Ivy 48 F R 00:56:52 18:20:00
242 Trina McCullough 49 F R 00:56:53 18:20:00
243 Meghan Lepore 16 F 3F15-19 R 00:56:54 18:21:00
244 Kathleen Shunstrom 42 F R 00:56:55 18:21:00
245 Savanah Wright 20 F R 00:59:02 19:02:00
246 Steve Wright 49 M R 00:59:30 19:11:00
247 Nancy Cummings 61 F 3F60-64 R 00:59:34 19:12:00
248 Charles Cummings 71 M W 00:59:35 19:13:00
249 Becca Fominaya 26 F W 00:59:36 19:13:00
250 Lydia Pelegrina 33 F W 00:59:39 19:14:00
251 Kymberly Wright 28 F R 00:59:40 19:14:00
252 Carrie Wicker 30 F R 01:00:00 19:21:00
253 Drew Wright 33 M R 01:00:01 19:21:00
254 John Love 51 M R 01:00:14 19:25:00
255 Ginny Wright 57 F R 01:00:18 19:27:00
256 BANDIT 0 R 01:01:00 19:40:00
257 BANDIT 0 R 01:01:15 19:45:00
258 Janet Walker 59 F R 01:01:15 19:45:00
259 Lisa Canham 49 F W 01:01:23 19:48:00
260 Geneva Robers 74 F W 01:01:24 19:48:00

Contact Information Donna Harris runwithitfl@gmail.com 850-243-1007